Time;durP1;ratioP1;P1;durP2;ratioP2;P2;SDS_P1;SDS_P2;PMS_P1;PMS_P2;Temp;Humidity;BMP_temperature;BMP_pressure;BME280_temperature;BME280_humidity;BME280_pressure;Samples;Min_cycle;Max_cycle;Signal;HPM_P1;HPM_P2
2021/12/02 00:00:25;;;;;;;3.97;1.67;;;11.00;55.10;;;;;;5032876;28;20447;-85
2021/12/02 00:02:52;;;;;;;2.13;1.53;;;10.90;55.10;;;;;;5047411;28;21216;-86
2021/12/02 00:05:19;;;;;;;2.87;1.83;;;11.10;55.20;;;;;;5026102;28;20978;-86
2021/12/02 00:07:47;;;;;;;2.00;1.40;;;10.90;55.10;;;;;;5031798;28;20574;-86
2021/12/02 00:10:15;;;;;;;2.03;1.40;;;10.90;54.70;;;;;;5063656;28;21284;-86
2021/12/02 00:12:42;;;;;;;1.90;1.30;;;11.10;54.90;;;;;;5031242;28;20947;-86
2021/12/02 00:15:18;;;;;;;3.57;1.80;;;11.00;53.90;;;;;;5063953;28;20516;-86
2021/12/02 00:17:53;;;;;;;2.80;2.20;;;10.90;54.40;;;;;;5044990;28;20911;-86
2021/12/02 00:23:28;;;;;;;2.80;1.60;;;10.70;54.50;;;;;;5061751;28;20459;-86
2021/12/02 00:25:57;;;;;;;5.40;1.77;;;10.80;54.50;;;;;;5052512;28;20469;-86
2021/12/02 00:28:25;;;;;;;4.30;2.00;;;10.80;54.80;;;;;;5031428;28;20468;-85
2021/12/02 00:30:54;;;;;;;2.30;1.83;;;10.60;54.00;;;;;;5043677;28;20453;-85
2021/12/02 00:33:24;;;;;;;6.30;2.13;;;10.60;55.20;;;;;;5047980;28;20461;-84
2021/12/02 00:35:51;;;;;;;3.83;1.93;;;10.50;54.80;;;;;;5020737;28;20530;-85
2021/12/02 00:38:20;;;;;;;2.20;1.63;;;10.40;54.80;;;;;;5047684;28;20457;-85
2021/12/02 00:40:47;;;;;;;2.20;1.83;;;10.60;55.00;;;;;;5047940;28;20481;-86
2021/12/02 00:43:16;;;;;;;1.90;1.80;;;10.60;54.80;;;;;;5046499;28;20486;-85
2021/12/02 00:45:44;;;;;;;3.07;1.70;;;10.70;55.00;;;;;;5033866;28;20487;-86
2021/12/02 00:48:12;;;;;;;2.17;1.70;;;10.70;54.50;;;;;;5043650;28;20469;-85
2021/12/02 00:50:43;;;;;;;3.50;1.63;;;10.60;54.10;;;;;;5028453;28;20458;-85
2021/12/02 00:53:11;;;;;;;5.60;2.00;;;10.40;54.40;;;;;;5058921;28;20729;-86
2021/12/02 00:55:40;;;;;;;2.23;1.60;;;10.50;55.00;;;;;;5050318;28;20723;-85
2021/12/02 00:58:11;;;;;;;3.63;1.67;;;10.50;54.50;;;;;;5046248;28;20444;-86
2021/12/02 01:00:40;;;;;;;2.27;1.70;;;10.30;54.60;;;;;;5046528;28;20467;-85
2021/12/02 01:03:08;;;;;;;3.80;2.10;;;10.40;55.20;;;;;;5064673;28;20452;-85
2021/12/02 01:05:35;;;;;;;1.73;1.37;;;10.40;55.20;;;;;;5030890;28;21426;-85
2021/12/02 01:08:03;;;;;;;1.47;1.37;;;10.50;54.60;;;;;;5045882;28;20559;-85
2021/12/02 01:10:30;;;;;;;1.97;1.60;;;10.60;54.40;;;;;;5044804;28;20460;-85
2021/12/02 01:12:58;;;;;;;1.50;1.40;;;10.40;55.00;;;;;;5034826;28;20462;-83
2021/12/02 01:15:26;;;;;;;1.43;1.30;;;10.20;55.10;;;;;;5065651;28;21010;-85
2021/12/02 01:17:55;;;;;;;1.87;1.43;;;10.40;55.40;;;;;;5064144;28;20558;-85
2021/12/02 01:20:22;;;;;;;1.50;1.40;;;10.50;54.40;;;;;;5030666;28;20518;-86
2021/12/02 01:22:49;;;;;;;2.77;2.10;;;10.30;54.80;;;;;;5062230;28;20453;-85
2021/12/02 01:25:19;;;;;;;3.43;1.50;;;10.30;55.50;;;;;;5054267;28;20485;-86
2021/12/02 01:27:48;;;;;;;1.50;1.20;;;10.30;55.30;;;;;;5030284;28;20524;-86
2021/12/02 01:30:16;;;;;;;2.50;1.80;;;10.30;55.10;;;;;;5042625;28;20968;-85
2021/12/02 01:32:48;;;;;;;4.10;1.50;;;10.40;54.80;;;;;;5046990;28;20853;-84
2021/12/02 01:35:20;;;;;;;2.13;1.80;;;10.30;54.90;;;;;;5047501;28;20464;-85
2021/12/02 01:37:47;;;;;;;4.13;1.63;;;10.30;56.10;;;;;;5062840;28;21108;-85
2021/12/02 01:40:14;;;;;;;3.83;1.83;;;10.40;55.90;;;;;;5066288;28;20468;-85
2021/12/02 01:42:41;;;;;;;1.40;1.30;;;10.50;55.90;;;;;;5055607;28;20464;-84
2021/12/02 01:45:14;;;;;;;1.93;1.73;;;10.60;56.30;;;;;;5045204;28;20481;-86
2021/12/02 01:47:47;;;;;;;9.23;4.60;;;10.60;56.20;;;;;;5031574;28;20683;-85
2021/12/02 01:50:20;;;;;;;5.23;2.20;;;10.60;56.60;;;;;;5032198;28;20479;-85
2021/12/02 01:52:49;;;;;;;16.33;3.83;;;10.50;56.90;;;;;;5056923;28;20461;-85
2021/12/02 01:55:17;;;;;;;17.03;8.90;;;10.40;57.40;;;;;;5049343;28;20476;-85
2021/12/02 01:57:54;;;;;;;28.13;10.87;;;10.30;57.80;;;;;;5047555;28;20448;-86
2021/12/02 02:00:22;;;;;;;28.93;13.80;;;10.30;58.10;;;;;;5066564;28;20460;-85
2021/12/02 02:02:49;;;;;;;11.03;4.90;;;10.50;58.10;;;;;;5067879;28;20516;-85
2021/12/02 02:05:18;;;;;;;4.40;3.43;;;10.40;58.20;;;;;;5048902;28;20480;-85
2021/12/02 02:07:58;;;;;;;2.77;2.40;;;10.60;58.40;;;;;;5042447;28;20452;-85
2021/12/02 02:10:26;;;;;;;7.73;2.30;;;10.50;58.30;;;;;;5052395;28;20467;-86
2021/12/02 02:12:57;;;;;;;6.50;2.10;;;10.70;58.20;;;;;;5051808;28;20802;-85
2021/12/02 02:15:25;;;;;;;5.47;3.20;;;10.60;57.90;;;;;;5065628;28;20983;-85
2021/12/02 02:17:55;;;;;;;5.33;3.07;;;10.60;58.20;;;;;;5046474;28;20449;-85
2021/12/02 02:20:25;;;;;;;2.37;2.17;;;10.70;58.10;;;;;;5066402;28;20457;-85
2021/12/02 02:22:53;;;;;;;4.60;2.63;;;10.40;58.60;;;;;;5038855;28;20955;-85
2021/12/02 02:25:20;;;;;;;4.67;3.30;;;10.20;59.40;;;;;;5057112;28;20472;-85
2021/12/02 02:27:47;;;;;;;4.33;3.03;;;10.30;59.00;;;;;;5058602;28;20551;-85
2021/12/02 02:30:14;;;;;;;10.23;5.90;;;10.30;59.10;;;;;;5069097;28;20457;-85
2021/12/02 02:32:41;;;;;;;9.17;4.20;;;10.40;59.30;;;;;;5067563;28;20464;-85
2021/12/02 02:35:08;;;;;;;5.67;2.50;;;10.50;58.80;;;;;;5016653;28;20492;-85
2021/12/02 02:37:37;;;;;;;4.60;1.80;;;10.60;58.30;;;;;;5045983;28;20456;-86
2021/12/02 02:40:09;;;;;;;3.83;2.30;;;10.60;58.10;;;;;;5049059;28;20484;-85
2021/12/02 02:42:36;;;;;;;4.07;2.20;;;10.40;58.60;;;;;;5051845;28;20819;-85
2021/12/02 02:45:04;;;;;;;6.10;2.03;;;10.10;58.90;;;;;;5048790;28;20529;-85
2021/12/02 02:47:31;;;;;;;8.37;4.70;;;9.90;61.40;;;;;;5035868;28;20449;-86
2021/12/02 02:49:58;;;;;;;4.00;3.20;;;9.80;61.20;;;;;;5066262;28;20464;-85
2021/12/02 02:52:26;;;;;;;2.30;1.70;;;10.00;59.90;;;;;;5050590;28;21385;-85
2021/12/02 02:54:54;;;;;;;6.30;1.60;;;10.10;60.10;;;;;;5051708;28;20460;-85
2021/12/02 02:57:25;;;;;;;2.50;2.13;;;10.30;59.90;;;;;;5053219;28;20455;-84
2021/12/02 03:00:07;;;;;;;1.97;1.70;;;10.40;59.80;;;;;;5049660;28;20522;-85
2021/12/02 03:02:39;;;;;;;3.73;3.07;;;10.40;59.70;;;;;;5067791;28;20452;-86
2021/12/02 03:05:18;;;;;;;3.33;2.77;;;10.60;59.50;;;;;;5068334;28;20499;-86
2021/12/02 03:07:50;;;;;;;7.60;5.07;;;10.60;59.80;;;;;;5023680;28;20453;-85
2021/12/02 03:10:22;;;;;;;20.67;8.70;;;10.60;59.80;;;;;;5066882;28;20452;-84
2021/12/02 03:12:57;;;;;;;11.40;5.70;;;10.60;59.70;;;;;;5028362;28;20441;-86
2021/12/02 03:18:09;;;;;;;11.23;7.00;;;10.60;59.70;;;;;;5068534;28;20449;-85
2021/12/02 03:20:36;;;;;;;11.90;5.83;;;10.60;60.10;;;;;;5067207;28;20475;-85
2021/12/02 03:23:03;;;;;;;13.77;7.33;;;10.70;60.00;;;;;;5070468;28;20453;-85
2021/12/02 03:25:32;;;;;;;3.87;1.93;;;10.70;59.70;;;;;;5048019;28;20490;-85
2021/12/02 03:27:59;;;;;;;3.23;2.77;;;10.70;59.60;;;;;;5036640;28;20449;-83
2021/12/02 03:30:26;;;;;;;6.27;4.00;;;10.70;59.70;;;;;;5026471;28;20432;-85
2021/12/02 03:32:53;;;;;;;2.80;2.60;;;10.70;59.40;;;;;;5027816;28;20968;-83
2021/12/02 03:35:20;;;;;;;6.47;3.90;;;10.70;60.20;;;;;;5047550;28;20489;-85
2021/12/02 03:37:47;;;;;;;3.87;3.07;;;10.80;60.20;;;;;;5038903;28;20457;-85
2021/12/02 03:40:14;;;;;;;5.80;3.27;;;11.00;59.90;;;;;;5060723;28;20457;-85
2021/12/02 03:42:48;;;;;;;4.57;3.93;;;11.10;59.50;;;;;;5068297;28;20453;-86
2021/12/02 03:45:15;;;;;;;6.00;3.13;;;11.20;59.20;;;;;;5055992;28;20477;-85
2021/12/02 03:47:42;;;;;;;6.50;2.40;;;11.30;59.10;;;;;;5032210;28;20955;-86
2021/12/02 03:50:10;;;;;;;3.37;2.13;;;11.30;58.80;;;;;;5065163;28;20468;-85
2021/12/02 03:52:37;;;;;;;5.83;3.93;;;11.30;58.60;;;;;;5048762;28;20466;-86
2021/12/02 03:55:05;;;;;;;3.87;1.90;;;11.40;58.60;;;;;;5064616;28;20476;-86
2021/12/02 03:57:32;;;;;;;4.10;3.50;;;11.20;58.80;;;;;;5043498;28;20826;-85
2021/12/02 04:00:03;;;;;;;5.37;3.80;;;11.00;59.20;;;;;;5051134;28;20465;-86
2021/12/02 04:02:39;;;;;;;3.90;2.60;;;11.00;59.40;;;;;;5062191;28;21068;-85
2021/12/02 04:05:06;;;;;;;4.70;2.60;;;10.90;59.30;;;;;;5028748;28;20491;-85
2021/12/02 04:07:33;;;;;;;2.33;2.13;;;11.00;59.20;;;;;;5063314;28;20462;-86
2021/12/02 04:10:01;;;;;;;1.80;1.70;;;11.00;59.20;;;;;;5049305;28;20527;-85
2021/12/02 04:12:33;;;;;;;1.40;1.30;;;10.90;59.10;;;;;;5048926;28;20455;-85
2021/12/02 04:15:04;;;;;;;3.57;2.03;;;10.60;58.90;;;;;;5068345;28;20542;-86
2021/12/02 04:17:42;;;;;;;1.47;1.37;;;10.60;59.00;;;;;;5045525;28;20441;-85
2021/12/02 04:20:13;;;;;;;1.93;1.57;;;10.50;59.00;;;;;;5066988;28;20449;-85
2021/12/02 04:22:41;;;;;;;1.20;1.00;;;10.20;59.10;;;;;;5047571;28;20469;-83
2021/12/02 04:25:09;;;;;;;1.23;1.13;;;10.20;59.60;;;;;;5029083;28;20472;-85
2021/12/02 04:27:36;;;;;;;1.50;1.27;;;10.20;59.90;;;;;;5063289;28;21002;-84
2021/12/02 04:30:06;;;;;;;2.07;1.30;;;10.20;59.50;;;;;;5022860;28;20480;-86
2021/12/02 04:32:33;;;;;;;2.03;1.13;;;10.20;59.30;;;;;;5043879;28;20475;-87
2021/12/02 04:35:00;;;;;;;1.43;1.20;;;10.10;59.60;;;;;;5069489;28;20475;-86
2021/12/02 04:37:29;;;;;;;3.57;1.50;;;10.10;59.50;;;;;;5046646;28;20460;-86
2021/12/02 04:39:56;;;;;;;2.63;1.43;;;10.10;59.30;;;;;;5042786;28;20536;-87
2021/12/02 04:42:23;;;;;;;2.40;1.60;;;10.20;59.10;;;;;;5050370;28;20460;-87
2021/12/02 04:44:50;;;;;;;1.33;1.23;;;10.20;59.10;;;;;;5064469;28;20476;-86
2021/12/02 04:47:19;;;;;;;2.70;1.30;;;10.00;58.90;;;;;;5045083;28;20528;-86
2021/12/02 04:49:46;;;;;;;1.67;1.07;;;10.10;59.50;;;;;;5029390;28;20487;-87
2021/12/02 04:52:13;;;;;;;1.20;1.10;;;10.10;59.30;;;;;;5046574;28;20473;-86
2021/12/02 04:54:40;;;;;;;7.33;1.40;;;10.00;59.10;;;;;;5016810;28;20476;-86
2021/12/02 04:57:08;;;;;;;1.80;1.40;;;9.90;60.60;;;;;;5047641;28;20813;-85
2021/12/02 04:59:35;;;;;;;27.07;2.07;;;10.00;59.50;;;;;;5044485;28;20931;-86
2021/12/02 05:02:02;;;;;;;2.47;1.87;;;10.00;59.60;;;;;;5038104;28;20444;-86
2021/12/02 05:04:30;;;;;;;1.60;1.30;;;9.90;60.30;;;;;;5054277;28;20488;-86
2021/12/02 05:06:57;;;;;;;2.27;1.77;;;10.00;59.50;;;;;;5047896;28;20828;-85
2021/12/02 05:09:24;;;;;;;2.20;1.70;;;10.10;59.40;;;;;;5050615;28;20499;-87
2021/12/02 05:11:51;;;;;;;1.20;1.10;;;10.00;58.60;;;;;;5034382;28;20464;-87
2021/12/02 05:14:18;;;;;;;2.63;1.50;;;10.10;59.00;;;;;;5049755;28;20459;-87
2021/12/02 05:16:45;;;;;;;3.03;1.53;;;10.10;58.70;;;;;;5034580;28;20459;-86
2021/12/02 05:19:12;;;;;;;3.43;1.63;;;10.10;58.60;;;;;;5055914;28;20459;-86
2021/12/02 05:21:42;;;;;;;2.27;1.43;;;10.30;58.70;;;;;;5058557;28;20870;-86
2021/12/02 05:24:08;;;;;;;2.87;1.50;;;10.30;59.10;;;;;;5049097;28;20452;-86
2021/12/02 05:26:36;;;;;;;1.03;0.93;;;10.30;58.40;;;;;;5064579;28;20456;-86
2021/12/02 05:29:04;;;;;;;1.67;1.07;;;10.10;58.10;;;;;;5050463;28;21275;-86
2021/12/02 05:31:31;;;;;;;1.83;1.00;;;9.90;59.60;;;;;;5050137;28;20448;-87
2021/12/02 05:33:58;;;;;;;2.60;1.87;;;9.80;59.60;;;;;;5048489;28;20459;-86
2021/12/02 05:36:24;;;;;;;1.33;1.20;;;9.80;59.90;;;;;;5047473;28;20479;-86
2021/12/02 05:38:53;;;;;;;2.17;0.83;;;9.40;60.80;;;;;;5029615;28;20495;-86
2021/12/02 05:41:20;;;;;;;8.73;2.90;;;9.40;61.30;;;;;;5056829;28;20455;-85
2021/12/02 05:43:47;;;;;;;1.87;1.77;;;9.40;61.90;;;;;;5048669;28;20460;-86
2021/12/02 05:46:14;;;;;;;3.03;2.00;;;9.60;61.70;;;;;;5031326;28;20468;-86
2021/12/02 05:48:41;;;;;;;5.50;2.60;;;9.50;60.10;;;;;;5016263;28;20460;-86
2021/12/02 05:51:08;;;;;;;1.30;1.20;;;9.50;59.30;;;;;;5068639;28;20452;-86
2021/12/02 05:53:35;;;;;;;2.00;1.80;;;9.40;59.10;;;;;;5040159;28;20465;-86
2021/12/02 05:56:03;;;;;;;1.90;1.80;;;9.30;58.70;;;;;;5068139;28;20479;-85
2021/12/02 05:58:30;;;;;;;1.40;1.17;;;9.30;59.60;;;;;;5066359;28;20460;-86
2021/12/02 06:00:57;;;;;;;5.07;1.43;;;9.50;59.80;;;;;;5067214;28;20460;-86
2021/12/02 06:03:24;;;;;;;3.40;1.20;;;9.70;59.60;;;;;;5048223;28;20440;-86
2021/12/02 06:05:51;;;;;;;5.00;1.40;;;9.80;59.10;;;;;;5052929;28;20476;-86
2021/12/02 06:08:18;;;;;;;1.37;1.23;;;9.90;58.90;;;;;;5047190;28;21181;-87
2021/12/02 06:10:45;;;;;;;2.03;1.87;;;9.80;58.60;;;;;;5060213;28;20476;-86
2021/12/02 06:13:13;;;;;;;4.27;1.80;;;9.70;58.70;;;;;;5045785;28;21117;-86
2021/12/02 06:15:40;;;;;;;2.13;1.00;;;9.70;58.00;;;;;;5048981;28;20495;-86
2021/12/02 06:18:08;;;;;;;1.10;0.80;;;9.50;58.60;;;;;;5064598;28;20460;-86
2021/12/02 06:20:35;;;;;;;3.40;1.40;;;9.40;58.70;;;;;;5051389;28;20567;-86
2021/12/02 06:23:02;;;;;;;2.60;1.00;;;9.30;59.20;;;;;;5063466;28;20884;-85
2021/12/02 06:25:47;;;;;;;3.47;1.90;;;9.40;59.00;;;;;;5050962;28;20983;-86
2021/12/02 06:28:16;;;;;;;4.67;2.80;;;9.40;58.70;;;;;;5050117;28;20437;-86
2021/12/02 06:30:44;;;;;;;3.43;3.13;;;9.40;58.20;;;;;;5066105;28;20478;-86
2021/12/02 06:33:11;;;;;;;2.43;2.13;;;9.50;58.40;;;;;;5046254;28;20457;-86
2021/12/02 06:35:39;;;;;;;3.63;2.60;;;9.70;58.90;;;;;;5046951;28;20606;-86
2021/12/02 06:38:06;;;;;;;2.90;2.10;;;9.60;58.10;;;;;;5031919;28;20457;-84
2021/12/02 06:40:34;;;;;;;3.27;1.10;;;9.50;58.40;;;;;;5050960;28;20437;-86
2021/12/02 06:43:02;;;;;;;1.60;1.30;;;9.60;57.90;;;;;;5049222;28;20449;-85
2021/12/02 06:45:31;;;;;;;2.20;1.10;;;9.60;57.80;;;;;;5043242;28;20472;-85
2021/12/02 06:47:59;;;;;;;1.80;1.10;;;9.60;57.80;;;;;;5057321;28;21121;-86
2021/12/02 06:50:28;;;;;;;2.03;1.60;;;9.40;57.80;;;;;;5047088;28;20909;-86
2021/12/02 06:52:55;;;;;;;5.60;2.57;;;9.30;57.70;;;;;;5056940;28;20484;-86
2021/12/02 06:55:23;;;;;;;1.20;1.03;;;9.20;58.10;;;;;;5037942;28;20553;-86
2021/12/02 06:57:50;;;;;;;2.70;1.60;;;9.30;58.20;;;;;;5050560;28;20482;-86
2021/12/02 07:00:19;;;;;;;1.67;1.57;;;9.30;57.30;;;;;;5043921;28;20473;-86
2021/12/02 07:02:47;;;;;;;0.93;0.73;;;9.40;56.90;;;;;;5017249;28;20452;-86
2021/12/02 07:05:18;;;;;;;1.97;1.20;;;9.30;56.30;;;;;;5044580;28;20480;-86
2021/12/02 07:07:46;;;;;;;2.03;1.00;;;9.20;56.70;;;;;;5062379;28;20460;-86
2021/12/02 07:10:16;;;;;;;1.30;1.20;;;9.10;57.30;;;;;;5013981;28;20452;-85
2021/12/02 07:12:46;;;;;;;1.13;1.03;;;9.20;56.70;;;;;;5028228;28;20891;-86
2021/12/02 07:15:17;;;;;;;2.60;1.13;;;9.20;56.40;;;;;;5026363;28;20460;-85
2021/12/02 07:17:45;;;;;;;0.70;0.70;;;9.30;56.60;;;;;;5064182;28;20460;-85
2021/12/02 07:20:14;;;;;;;1.10;0.73;;;9.00;56.70;;;;;;5064053;28;20850;-86
2021/12/02 07:22:41;;;;;;;4.37;1.00;;;9.00;56.70;;;;;;5067317;28;20468;-86
2021/12/02 07:25:09;;;;;;;2.90;1.40;;;9.10;57.30;;;;;;5047871;28;20483;-86
2021/12/02 07:27:36;;;;;;;1.13;0.83;;;9.20;56.80;;;;;;5025182;28;20460;-86
2021/12/02 07:30:04;;;;;;;2.90;2.13;;;9.20;56.30;;;;;;5065809;28;20464;-84
2021/12/02 07:32:36;;;;;;;2.10;1.17;;;9.10;56.50;;;;;;5030593;28;20977;-86
2021/12/02 07:35:09;;;;;;;4.23;1.20;;;9.10;56.60;;;;;;5012078;28;20476;-85
2021/12/02 07:37:41;;;;;;;2.63;2.43;;;9.10;56.60;;;;;;5026307;28;20445;-85
2021/12/02 07:40:10;;;;;;;1.33;1.23;;;9.20;56.80;;;;;;5029331;28;20449;-86
2021/12/02 07:42:37;;;;;;;1.30;1.20;;;9.20;56.40;;;;;;5001132;28;20831;-86
2021/12/02 07:45:05;;;;;;;1.33;1.23;;;9.20;56.50;;;;;;5026959;28;20479;-86
2021/12/02 07:47:33;;;;;;;4.30;1.20;;;9.10;56.60;;;;;;5027878;28;20464;-86
2021/12/02 07:50:00;;;;;;;1.97;1.27;;;9.20;56.50;;;;;;5060529;28;20476;-86
2021/12/02 07:52:27;;;;;;;1.87;1.67;;;9.10;56.40;;;;;;5047274;28;20455;-86
2021/12/02 07:54:56;;;;;;;1.90;1.50;;;9.10;56.40;;;;;;5033000;28;20486;-86
2021/12/02 07:57:23;;;;;;;1.13;1.07;;;9.10;56.80;;;;;;5052568;28;20484;-86
2021/12/02 07:59:51;;;;;;;1.87;1.37;;;9.10;56.90;;;;;;5042447;28;20446;-86
2021/12/02 08:02:19;;;;;;;3.27;2.03;;;8.90;56.30;;;;;;5049289;28;20535;-86
2021/12/02 08:04:46;;;;;;;2.80;1.30;;;8.80;56.80;;;;;;5047413;28;20464;-85
2021/12/02 08:07:13;;;;;;;1.13;0.90;;;8.80;57.50;;;;;;5055698;28;20670;-86
2021/12/02 08:09:40;;;;;;;0.97;0.80;;;8.80;57.90;;;;;;5046232;28;20456;-86
2021/12/02 08:12:09;;;;;;;3.27;1.30;;;8.90;57.60;;;;;;5046972;28;20456;-86
2021/12/02 08:14:36;;;;;;;0.90;0.73;;;8.90;57.60;;;;;;5016205;28;20476;-86
2021/12/02 08:17:03;;;;;;;1.47;0.80;;;8.90;57.50;;;;;;5030121;28;20457;-85
2021/12/02 08:19:31;;;;;;;0.70;0.60;;;8.80;58.10;;;;;;5046503;28;20469;-86
2021/12/02 08:21:58;;;;;;;0.80;0.80;;;8.80;58.10;;;;;;5047306;28;20820;-86
2021/12/02 08:24:25;;;;;;;0.70;0.70;;;8.70;58.80;;;;;;5031417;28;21007;-86
2021/12/02 08:26:53;;;;;;;3.03;0.83;;;8.70;58.30;;;;;;5061916;28;20465;-86
2021/12/02 08:29:22;;;;;;;4.83;0.70;;;8.90;58.00;;;;;;5063669;28;20970;-86
2021/12/02 08:31:49;;;;;;;1.97;0.90;;;9.00;58.10;;;;;;5045584;28;20477;-86
2021/12/02 08:34:17;;;;;;;0.90;0.90;;;8.90;57.60;;;;;;5023040;28;20472;-86
2021/12/02 08:36:46;;;;;;;1.33;0.93;;;8.90;58.50;;;;;;5035532;28;20994;-86
2021/12/02 08:39:19;;;;;;;0.87;0.80;;;9.00;58.50;;;;;;5046022;28;20460;-85
2021/12/02 08:41:48;;;;;;;1.30;0.90;;;9.10;58.40;;;;;;5064544;28;20819;-86
2021/12/02 08:44:15;;;;;;;1.30;1.00;;;9.10;58.50;;;;;;5069368;28;20468;-86
2021/12/02 08:46:44;;;;;;;3.57;1.50;;;9.00;58.10;;;;;;5048348;28;20989;-86
2021/12/02 08:49:11;;;;;;;49.53;18.60;;;8.90;58.60;;;;;;5049279;28;21334;-85
2021/12/02 08:51:38;;;;;;;25.23;10.80;;;8.90;58.60;;;;;;5053301;28;20474;-86
2021/12/02 08:54:05;;;;;;;11.23;4.90;;;8.90;58.40;;;;;;5032043;28;20443;-86
2021/12/02 08:56:34;;;;;;;4.20;2.37;;;8.90;58.60;;;;;;5038476;28;20479;-86
2021/12/02 08:59:01;;;;;;;1.77;1.40;;;8.80;58.70;;;;;;5067203;28;20458;-86
2021/12/02 09:01:29;;;;;;;2.10;1.80;;;8.80;59.10;;;;;;5028606;28;20535;-86
2021/12/02 09:03:57;;;;;;;1.50;1.40;;;8.80;58.60;;;;;;5033377;28;20483;-86
2021/12/02 09:06:25;;;;;;;1.43;1.00;;;8.70;59.30;;;;;;5054409;28;20877;-85
2021/12/02 09:08:54;;;;;;;2.30;1.87;;;8.70;59.40;;;;;;5066673;28;20464;-86
2021/12/02 09:11:21;;;;;;;3.17;1.63;;;8.70;59.70;;;;;;5030341;28;20816;-85
2021/12/02 09:13:48;;;;;;;1.43;1.33;;;8.80;59.50;;;;;;5035892;28;20452;-86
2021/12/02 09:16:16;;;;;;;4.03;1.27;;;8.80;59.80;;;;;;5046007;28;20507;-85
2021/12/02 09:18:43;;;;;;;2.63;1.30;;;9.00;59.70;;;;;;5037284;28;21143;-86
2021/12/02 09:21:11;;;;;;;1.70;1.20;;;8.90;58.90;;;;;;5060243;28;20926;-86
2021/12/02 09:23:38;;;;;;;1.47;1.37;;;8.80;59.40;;;;;;5069905;28;20460;-86
2021/12/02 09:26:05;;;;;;;3.20;1.50;;;8.80;59.30;;;;;;5051208;28;20877;-85
2021/12/02 09:28:32;;;;;;;2.03;1.13;;;8.70;59.20;;;;;;5068803;28;20959;-86
2021/12/02 09:30:59;;;;;;;1.10;1.00;;;8.40;59.50;;;;;;5032082;28;20484;-87
2021/12/02 09:33:26;;;;;;;1.40;1.30;;;8.30;60.00;;;;;;5035135;28;20457;-85
2021/12/02 09:35:53;;;;;;;1.43;1.33;;;8.20;60.60;;;;;;5067426;28;20467;-86
2021/12/02 09:38:21;;;;;;;0.97;0.90;;;8.20;60.40;;;;;;5051347;28;20441;-84
2021/12/02 09:40:49;;;;;;;2.17;1.60;;;8.40;60.60;;;;;;5061907;28;20454;-86
2021/12/02 09:43:16;;;;;;;1.43;1.33;;;8.60;60.60;;;;;;5043329;28;20820;-85
2021/12/02 09:45:44;;;;;;;1.30;1.20;;;8.70;59.70;;;;;;5054354;28;20468;-86
2021/12/02 09:48:11;;;;;;;1.43;1.30;;;8.80;59.70;;;;;;5024449;28;20479;-85
2021/12/02 09:50:49;;;;;;;1.53;1.40;;;8.80;58.80;;;;;;5049590;28;21017;-85
2021/12/02 09:53:20;;;;;;;2.70;1.40;;;8.80;59.30;;;;;;5038667;28;20547;-86
2021/12/02 09:55:53;;;;;;;1.90;1.37;;;8.80;59.50;;;;;;5043204;28;20480;-86
2021/12/02 09:58:23;;;;;;;2.03;1.23;;;8.70;59.60;;;;;;5044741;28;20535;-84
2021/12/02 10:00:54;;;;;;;1.30;1.20;;;8.60;60.10;;;;;;5043322;28;20583;-84
2021/12/02 10:03:28;;;;;;;1.60;1.50;;;8.70;59.80;;;;;;5048386;28;20966;-86
2021/12/02 10:06:03;;;;;;;1.30;0.90;;;8.90;59.90;;;;;;5032096;28;20472;-86
2021/12/02 10:08:37;;;;;;;1.20;1.10;;;8.90;59.80;;;;;;5066715;28;20459;-86
2021/12/02 10:11:07;;;;;;;1.50;1.40;;;8.90;60.10;;;;;;5034375;28;20999;-86
2021/12/02 10:13:39;;;;;;;1.33;1.23;;;9.00;59.80;;;;;;5056443;28;20443;-86
2021/12/02 10:16:20;;;;;;;3.97;1.80;;;9.10;59.60;;;;;;5049186;28;20885;-86
2021/12/02 10:18:59;;;;;;;1.90;1.70;;;9.00;59.60;;;;;;5067222;28;20539;-85
2021/12/02 10:21:35;;;;;;;2.60;1.60;;;8.80;60.20;;;;;;5031453;28;20445;-86
2021/12/02 10:24:05;;;;;;;3.40;2.20;;;8.80;60.60;;;;;;5065839;28;20448;-86
2021/12/02 10:26:40;;;;;;;3.40;1.70;;;8.80;60.50;;;;;;5067063;28;20823;-85
2021/12/02 10:29:09;;;;;;;4.50;2.23;;;8.70;60.70;;;;;;5049456;28;20455;-85
2021/12/02 10:31:38;;;;;;;6.70;2.40;;;8.90;60.20;;;;;;5038057;28;20486;-87
2021/12/02 10:34:07;;;;;;;1.80;1.70;;;9.00;59.90;;;;;;5046508;28;20448;-85
2021/12/02 10:36:36;;;;;;;4.93;2.73;;;9.10;59.90;;;;;;5034283;28;20631;-86
2021/12/02 10:39:09;;;;;;;4.60;3.80;;;9.20;59.60;;;;;;5049230;28;20456;-85
2021/12/02 10:41:42;;;;;;;4.53;2.87;;;9.20;60.00;;;;;;5053647;28;20462;-86
2021/12/02 10:44:13;;;;;;;3.20;2.13;;;9.40;59.80;;;;;;5039966;28;20532;-86
2021/12/02 10:46:53;;;;;;;2.17;1.70;;;9.40;59.70;;;;;;5062243;28;20556;-86
2021/12/02 10:49:21;;;;;;;3.53;1.57;;;9.40;59.70;;;;;;5047772;28;20548;-84
2021/12/02 10:51:51;;;;;;;1.50;1.40;;;9.30;59.70;;;;;;5048724;28;21033;-86
2021/12/02 10:54:20;;;;;;;15.53;6.70;;;9.40;60.00;;;;;;5049288;28;20460;-86
2021/12/02 10:56:51;;;;;;;26.87;9.07;;;9.40;59.40;;;;;;5041367;28;21187;-87
2021/12/02 10:59:43;;;;;;;4.57;2.57;;;9.40;59.40;;;;;;5036028;28;20466;-86
2021/12/02 11:02:18;;;;;;;31.30;13.30;;;9.50;59.60;;;;;;5063642;28;20450;-86
2021/12/02 11:04:47;;;;;;;4.43;3.93;;;9.50;59.80;;;;;;5014472;28;20484;-86
2021/12/02 11:07:22;;;;;;;5.23;3.33;;;9.60;58.80;;;;;;5032008;28;20463;-86
2021/12/02 11:09:50;;;;;;;3.10;2.20;;;9.60;59.40;;;;;;5060604;28;20460;-86
2021/12/02 11:12:22;;;;;;;2.70;2.00;;;9.50;59.50;;;;;;5048586;28;20471;-86
2021/12/02 11:14:59;;;;;;;2.67;2.30;;;9.60;59.80;;;;;;5063388;28;20481;-87
2021/12/02 11:17:29;;;;;;;2.17;1.90;;;9.50;61.00;;;;;;5026764;28;21290;-86
2021/12/02 11:19:58;;;;;;;7.27;5.83;;;9.40;60.00;;;;;;5064698;28;20441;-86
2021/12/02 11:22:28;;;;;;;4.80;2.70;;;9.50;59.70;;;;;;5049198;28;20444;-86
2021/12/02 11:24:55;;;;;;;7.03;4.93;;;9.50;59.70;;;;;;5049666;28;20473;-86
2021/12/02 11:27:26;;;;;;;3.67;2.30;;;9.60;60.00;;;;;;5042010;28;20459;-86
2021/12/02 11:29:57;;;;;;;3.10;2.90;;;9.70;59.90;;;;;;5062316;28;20459;-86
2021/12/02 11:32:33;;;;;;;4.40;3.13;;;9.70;59.60;;;;;;5064811;28;20472;-86
2021/12/02 11:35:03;;;;;;;4.47;3.23;;;9.80;59.60;;;;;;5029809;28;20491;-87
2021/12/02 11:37:31;;;;;;;2.60;2.03;;;9.80;59.30;;;;;;5029781;28;20459;-86
2021/12/02 11:40:00;;;;;;;2.40;1.80;;;9.60;59.10;;;;;;5047200;28;20468;-86
2021/12/02 11:42:29;;;;;;;3.80;3.20;;;9.60;60.10;;;;;;5036793;28;20456;-86
2021/12/02 11:44:57;;;;;;;1.60;1.50;;;9.70;59.50;;;;;;5049714;28;20556;-86
2021/12/02 11:47:24;;;;;;;4.30;3.30;;;9.70;59.40;;;;;;5041941;28;21137;-86
2021/12/02 11:49:51;;;;;;;8.97;3.47;;;9.70;59.30;;;;;;5035298;28;20472;-86
2021/12/02 11:52:18;;;;;;;6.30;3.40;;;9.70;58.90;;;;;;5020990;28;20465;-86
2021/12/02 11:54:46;;;;;;;8.73;5.43;;;9.60;59.10;;;;;;5050477;28;20833;-86
2021/12/02 11:57:13;;;;;;;3.87;3.00;;;9.80;59.00;;;;;;5047754;28;20460;-86
2021/12/02 11:59:41;;;;;;;3.90;2.60;;;9.90;58.60;;;;;;5032818;28;20458;-86
2021/12/02 12:02:09;;;;;;;2.03;1.93;;;10.00;57.70;;;;;;5028561;28;20448;-85
2021/12/02 12:04:38;;;;;;;3.00;2.10;;;10.10;57.20;;;;;;5039226;28;20473;-86
2021/12/02 12:07:11;;;;;;;4.27;2.20;;;10.00;57.40;;;;;;5029403;28;21234;-87
2021/12/02 12:09:38;;;;;;;3.07;2.70;;;10.00;57.50;;;;;;5028401;28;20449;-86
2021/12/02 12:12:06;;;;;;;6.60;3.30;;;10.00;57.80;;;;;;5041991;28;20495;-87
2021/12/02 12:14:38;;;;;;;5.73;2.70;;;10.00;57.40;;;;;;5031176;28;20483;-86
2021/12/02 12:17:09;;;;;;;7.83;2.80;;;10.10;58.00;;;;;;5037276;28;20492;-86
2021/12/02 12:19:41;;;;;;;3.40;2.33;;;9.90;58.60;;;;;;5039073;28;20451;-87
2021/12/02 12:22:11;;;;;;;6.50;3.30;;;9.70;58.80;;;;;;5063956;28;20448;-86
2021/12/02 12:24:42;;;;;;;2.80;2.50;;;9.80;59.50;;;;;;5050166;28;20481;-86
2021/12/02 12:27:14;;;;;;;4.47;1.77;;;9.70;58.80;;;;;;5055903;28;20529;-86
2021/12/02 12:29:41;;;;;;;3.57;2.50;;;9.40;59.20;;;;;;5045395;28;20460;-86
2021/12/02 12:32:26;;;;;;;2.97;1.90;;;9.40;58.90;;;;;;5062584;28;20477;-84
2021/12/02 12:35:01;;;;;;;2.07;1.93;;;9.30;59.70;;;;;;5029851;28;20987;-86
2021/12/02 12:37:48;;;;;;;1.60;1.50;;;9.10;59.70;;;;;;5046985;28;20467;-86
2021/12/02 12:40:18;;;;;;;4.70;2.20;;;9.10;59.00;;;;;;5047314;28;20445;-86
2021/12/02 12:42:47;;;;;;;2.50;1.83;;;9.00;59.60;;;;;;5048844;28;20468;-86
2021/12/02 12:45:24;;;;;;;1.70;1.60;;;9.10;59.30;;;;;;5044606;28;21065;-85
2021/12/02 12:47:55;;;;;;;8.93;2.90;;;9.00;58.80;;;;;;5041779;28;20525;-86
2021/12/02 12:50:25;;;;;;;4.00;2.10;;;9.20;58.60;;;;;;5030242;28;20444;-86
2021/12/02 12:52:54;;;;;;;37.53;11.87;;;9.30;58.40;;;;;;5021177;28;20472;-85
2021/12/02 12:55:23;;;;;;;4.70;2.27;;;9.50;58.30;;;;;;5035934;28;20504;-86
2021/12/02 12:58:10;;;;;;;2.50;1.63;;;9.50;57.30;;;;;;5030124;28;20474;-86
2021/12/02 13:00:39;;;;;;;2.33;1.73;;;9.50;57.20;;;;;;5062203;28;20457;-86
2021/12/02 13:03:12;;;;;;;3.80;3.47;;;9.60;57.50;;;;;;5064039;28;20448;-86
2021/12/02 13:05:46;;;;;;;4.20;3.73;;;9.60;57.70;;;;;;5066156;28;20479;-85
2021/12/02 13:08:17;;;;;;;5.10;2.70;;;9.50;58.00;;;;;;5063006;28;20448;-86